Main page
METAR-TAF:

METAR-TAF

Airports :

Central Wisconsin Airport

Mosinee, Wisconsin, United States

latitude: 44-47N, longitude: 089-40W, elevation: 1276 ft

Current weather observation

The report was made 41 minutes ago, at 20:47 UTC
Wind 10 mph from the West
Temperature 10°F
Humidity 47%
Pressure 30.60 in. Hg
Visibility: 10 miles
Clear sky

METAR: KCWA 202047Z 26009KT 10SM SKC M12/M21 A3060

Time: 15:28 (21:28 UTC)

Forecast

The report was made 4 hours and 3 minutes ago, at 17:25 UTC
Forecast valid from 20 at 18 UTC to 21 at 18 UTC
Wind 8 mph from the West
Visibility: 6 miles
Clear sky
From 21 at 0600 UTC
Wind 8 mph from the West/Southwest
Visibility: 6 miles
Clear sky
From 21 at 1500 UTC
Wind 14 mph from the Southwest with gusts up to 23 mph
Visibility: 6 miles
Clear sky

TAF: KCWA 201725Z 2018/2118 26007KT P6SM SKC FM210600 24007KT P6SM SKC WS012/27035KT FM211500 23012G20KT P6SM SKC

Weather observations and forecasts of more than 4000 airports (METAR and TAF reports).

The available stations are represented by yellow and red dots on the map.

Hover mouse over dot to see the name of the station.

Then click to see weather observations and forecasts.

To change the map : click on the green buttons with a black cross to zoom in, on the green button with a dash to zoom out, or on the green arrows for adjacent maps.


METAR-TAF: